Terminal Aerodrome Forecast
Issued by NWS

Home | Current Version | Previous Version | Text Only | Print | Product List | Glossary On
Versions: 1 2 3 4 5 6 7 8 9 10 11 12 13 14 15 16 17 18 19 20
000
FTUS41 KCLE 201700 CCA
TAFFDY
TAF COR
KFDY 201745Z 2018/2118 19012KT P6SM OVC050
      TEMPO 2018/2020 2SM SHRA OVC025
     FM202200 26008KT P6SM VCSH OVC025
     FM210500 30008KT 6SM BR OVC015
     FM211300 33012KT P6SM BKN030=

USA.gov is the U.S. government's official web portal to all federal, state and local government web resources and services.